Terminal Aerodrome Forecast
Issued by NWS Cleveland, OH

Home | Current Version | Previous Version | Graphics & Text | Print | Product List | Glossary On
Versions: 1 2 3 4 5 6 7 8 9 10 11 12 13 14 15 16 17 18 19 20 21 22 23 24
000
FTUS41 KCLE 311436 AAA
TAFYNG
TAF AMD
KYNG 311436Z 3115/0112 VRB04KT 3SM -SHRA BR BKN003 OVC015
      TEMPO 3115/3119 1 1/2SM -SHRA OVC003
     FM311900 02012KT 4SM SHRA OVC006
     FM312300 35008KT 4SM BR OVC004=

USA.gov is the U.S. government's official web portal to all federal, state and local government web resources and services.